Time;durP1;ratioP1;P1;durP2;ratioP2;P2;SDS_P1;SDS_P2;PMS_P1;PMS_P2;Temp;Humidity;BMP_temperature;BMP_pressure;BME280_temperature;BME280_humidity;BME280_pressure;Samples;Min_cycle;Max_cycle;Signal;HPM_P1;HPM_P2
2022/03/14 00:00:59;;;;;;;12.03;9.33;;;8.60;45.00;;;;;;932929;147;28012;-75
2022/03/14 00:03:26;;;;;;;10.50;8.73;;;8.60;45.20;;;;;;930305;148;27368;-77
2022/03/14 00:05:52;;;;;;;12.53;8.90;;;8.60;45.70;;;;;;932136;148;27870;-75
2022/03/14 00:08:24;;;;;;;13.63;8.80;;;8.70;45.00;;;;;;911227;151;27477;-75
2022/03/14 00:10:49;;;;;;;10.73;8.80;;;8.80;45.10;;;;;;928836;149;27375;-76
2022/03/14 00:13:19;;;;;;;10.10;8.60;;;8.80;45.10;;;;;;933494;150;27416;-75
2022/03/14 00:15:40;;;;;;;9.43;8.37;;;8.80;45.00;;;;;;921034;150;27468;-75
2022/03/14 00:18:06;;;;;;;9.80;7.53;;;8.90;45.00;;;;;;936261;148;28407;-74
2022/03/14 00:20:32;;;;;;;13.47;8.37;;;8.90;45.70;;;;;;936399;148;27316;-74
2022/03/14 00:22:59;;;;;;;10.23;8.20;;;9.00;45.00;;;;;;936259;148;27838;-75
2022/03/14 00:25:26;;;;;;;9.97;7.33;;;9.00;45.00;;;;;;932481;148;27324;-75
2022/03/14 00:27:53;;;;;;;8.97;8.07;;;9.00;44.80;;;;;;932898;148;27829;-75
2022/03/14 00:30:18;;;;;;;8.50;7.60;;;9.10;44.80;;;;;;931901;147;27354;-75
2022/03/14 00:32:45;;;;;;;8.60;7.80;;;9.10;44.90;;;;;;911719;152;27425;-74
2022/03/14 00:35:11;;;;;;;9.73;7.33;;;9.20;44.90;;;;;;917816;150;27324;-74
2022/03/14 00:37:38;;;;;;;10.23;7.80;;;9.20;45.00;;;;;;918789;150;27361;-75
2022/03/14 00:40:04;;;;;;;9.47;7.93;;;9.30;44.70;;;;;;940239;148;27862;-74
2022/03/14 00:42:31;;;;;;;8.93;7.57;;;9.30;44.60;;;;;;938437;148;27372;-74
2022/03/14 00:44:58;;;;;;;8.93;7.27;;;9.40;44.70;;;;;;937821;148;27396;-75
2022/03/14 00:47:24;;;;;;;8.43;7.27;;;9.40;44.60;;;;;;938284;148;27764;-74
2022/03/14 00:49:51;;;;;;;9.23;7.07;;;9.40;44.50;;;;;;939190;148;27281;-76
2022/03/14 00:52:17;;;;;;;8.43;7.03;;;9.50;44.40;;;;;;938354;148;27365;-74
2022/03/14 00:54:44;;;;;;;8.23;7.33;;;9.50;44.40;;;;;;941544;149;27365;-74
2022/03/14 00:57:11;;;;;;;9.03;7.10;;;9.50;44.40;;;;;;937599;149;27309;-74
2022/03/14 00:59:39;;;;;;;10.80;7.73;;;9.60;44.40;;;;;;937245;149;27464;-75
2022/03/14 01:02:04;;;;;;;8.53;7.53;;;9.60;44.50;;;;;;936791;149;27333;-75
2022/03/14 01:04:30;;;;;;;8.93;7.37;;;9.60;44.40;;;;;;938243;149;27438;-74
2022/03/14 01:06:57;;;;;;;11.17;6.97;;;9.70;44.30;;;;;;940499;149;27484;-75
2022/03/14 01:09:23;;;;;;;7.70;6.97;;;9.70;44.10;;;;;;938141;149;27320;-75
2022/03/14 01:11:50;;;;;;;8.90;7.10;;;9.70;44.10;;;;;;939234;149;27424;-75
2022/03/14 01:14:17;;;;;;;8.53;7.23;;;9.70;44.10;;;;;;939304;149;27266;-76
2022/03/14 01:16:43;;;;;;;9.27;7.17;;;9.80;44.00;;;;;;938594;149;27361;-77
2022/03/14 01:19:11;;;;;;;8.30;6.60;;;9.80;43.90;;;;;;940173;149;27369;-75
2022/03/14 01:21:38;;;;;;;8.43;6.53;;;9.80;43.70;;;;;;939018;149;27428;-76
2022/03/14 01:24:03;;;;;;;7.73;6.60;;;9.80;43.60;;;;;;940051;149;27369;-75
2022/03/14 01:26:29;;;;;;;7.53;6.77;;;9.80;43.50;;;;;;942600;149;27375;-76
2022/03/14 01:28:57;;;;;;;8.93;7.20;;;9.80;43.60;;;;;;941160;149;27364;-77
2022/03/14 01:31:23;;;;;;;9.03;7.13;;;9.90;43.80;;;;;;938740;149;27888;-75
2022/03/14 01:33:49;;;;;;;7.70;6.90;;;9.90;43.80;;;;;;939653;149;27436;-75
2022/03/14 01:36:17;;;;;;;7.67;6.70;;;9.90;43.80;;;;;;939838;149;27394;-75
2022/03/14 01:38:42;;;;;;;7.90;6.77;;;9.90;43.70;;;;;;936754;149;27439;-76
2022/03/14 01:41:10;;;;;;;12.87;7.07;;;9.90;43.80;;;;;;930325;151;27873;-77
2022/03/14 01:43:36;;;;;;;7.23;5.77;;;9.80;44.10;;;;;;936683;151;27383;-75
2022/03/14 01:46:02;;;;;;;7.53;6.73;;;9.80;43.60;;;;;;938006;151;27391;-75
2022/03/14 01:48:29;;;;;;;7.93;6.53;;;9.80;43.50;;;;;;938360;151;27341;-75
2022/03/14 01:50:55;;;;;;;7.17;6.40;;;9.80;43.40;;;;;;926906;151;27305;-75
2022/03/14 01:53:22;;;;;;;6.20;5.60;;;9.80;43.40;;;;;;925696;154;27406;-77
2022/03/14 01:55:48;;;;;;;9.00;6.80;;;9.70;43.30;;;;;;923280;154;27387;-75
2022/03/14 01:58:16;;;;;;;8.37;6.40;;;9.70;43.40;;;;;;923418;154;27847;-75
2022/03/14 02:00:42;;;;;;;7.07;6.37;;;9.70;43.40;;;;;;921134;153;27320;-75
2022/03/14 02:03:08;;;;;;;11.70;6.80;;;9.70;43.40;;;;;;923769;152;27385;-76
2022/03/14 02:05:36;;;;;;;7.50;6.60;;;9.70;43.30;;;;;;923488;154;27421;-76
2022/03/14 02:08:01;;;;;;;7.53;6.60;;;9.70;43.30;;;;;;924259;151;27478;-75
2022/03/14 02:10:28;;;;;;;7.10;6.47;;;9.70;43.30;;;;;;923510;153;27831;-75
2022/03/14 02:12:55;;;;;;;8.20;6.23;;;9.70;43.30;;;;;;924970;154;27422;-76
2022/03/14 02:15:21;;;;;;;6.80;6.10;;;9.70;43.20;;;;;;923757;154;27297;-76
2022/03/14 02:17:48;;;;;;;8.17;6.80;;;9.60;43.20;;;;;;925436;153;27365;-75
2022/03/14 02:20:14;;;;;;;9.40;7.20;;;9.60;43.10;;;;;;923492;154;27895;-74
2022/03/14 02:22:41;;;;;;;8.37;6.90;;;9.60;43.10;;;;;;924639;152;27414;-74
2022/03/14 02:25:10;;;;;;;7.97;7.17;;;9.60;43.10;;;;;;923641;152;27363;-74
2022/03/14 02:27:37;;;;;;;7.63;6.60;;;9.60;43.00;;;;;;923915;153;27290;-77
2022/03/14 02:30:04;;;;;;;8.77;6.80;;;9.50;43.00;;;;;;924825;151;27447;-78
2022/03/14 02:32:30;;;;;;;12.50;7.83;;;9.50;43.10;;;;;;925076;152;27393;-75
2022/03/14 02:34:57;;;;;;;7.87;7.07;;;9.40;43.20;;;;;;922822;152;27296;-75
2022/03/14 02:37:24;;;;;;;8.23;6.83;;;9.40;43.20;;;;;;924657;152;27811;-75
2022/03/14 02:39:50;;;;;;;9.30;7.40;;;9.30;43.30;;;;;;927604;149;27366;-76
2022/03/14 02:42:16;;;;;;;7.60;6.70;;;9.30;43.30;;;;;;940947;149;27317;-78
2022/03/14 02:44:43;;;;;;;8.47;7.03;;;9.30;43.40;;;;;;939508;149;27393;-74
2022/03/14 02:47:10;;;;;;;10.97;6.93;;;9.30;43.50;;;;;;938082;149;27458;-75
2022/03/14 02:49:37;;;;;;;7.57;6.77;;;9.20;43.40;;;;;;940319;149;27428;-75
2022/03/14 02:52:03;;;;;;;6.90;6.20;;;9.20;43.50;;;;;;939416;149;27398;-77
2022/03/14 02:54:29;;;;;;;8.27;7.37;;;9.20;43.50;;;;;;940029;149;27388;-75
2022/03/14 02:56:59;;;;;;;9.60;7.97;;;9.30;43.70;;;;;;938689;149;28365;-75
2022/03/14 02:59:26;;;;;;;11.40;8.10;;;9.30;43.80;;;;;;940935;149;27448;-75
2022/03/14 03:01:52;;;;;;;10.00;8.20;;;9.30;43.90;;;;;;939990;149;27359;-76
2022/03/14 03:04:18;;;;;;;10.93;8.03;;;9.30;43.30;;;;;;938103;149;27468;-78
2022/03/14 03:06:45;;;;;;;10.17;8.13;;;9.30;44.10;;;;;;938670;149;27390;-74
2022/03/14 03:09:12;;;;;;;10.63;8.13;;;9.30;44.20;;;;;;939862;149;27410;-75
2022/03/14 03:11:40;;;;;;;9.97;8.10;;;9.40;44.20;;;;;;938072;149;27311;-77
2022/03/14 03:14:05;;;;;;;8.97;7.83;;;9.40;44.30;;;;;;941363;149;27383;-75
2022/03/14 03:16:34;;;;;;;11.87;9.23;;;9.40;44.40;;;;;;938510;149;27308;-76
2022/03/14 03:18:58;;;;;;;9.17;8.07;;;9.40;44.40;;;;;;938597;149;27450;-76
2022/03/14 03:21:24;;;;;;;10.03;8.20;;;9.50;45.00;;;;;;939403;149;27289;-76
2022/03/14 03:23:51;;;;;;;10.53;8.53;;;9.50;44.50;;;;;;938817;149;27431;-75
2022/03/14 03:26:18;;;;;;;13.73;8.10;;;9.50;44.50;;;;;;940211;149;27328;-75
2022/03/14 03:28:44;;;;;;;10.07;8.50;;;9.50;44.50;;;;;;939077;149;27274;-78
2022/03/14 03:31:11;;;;;;;11.87;8.27;;;9.60;44.60;;;;;;937665;149;27350;-75
2022/03/14 03:33:37;;;;;;;10.10;8.00;;;9.60;44.60;;;;;;939900;149;27820;-75
2022/03/14 03:36:04;;;;;;;11.30;8.53;;;9.60;44.60;;;;;;938695;149;27791;-75
2022/03/14 03:38:31;;;;;;;11.53;8.03;;;9.70;44.70;;;;;;939949;149;27375;-75
2022/03/14 03:40:57;;;;;;;9.73;7.90;;;9.70;44.60;;;;;;939035;149;27408;-77
2022/03/14 03:43:24;;;;;;;10.37;8.70;;;9.70;44.60;;;;;;936858;149;27377;-75
2022/03/14 03:45:50;;;;;;;9.80;8.13;;;9.70;44.70;;;;;;938497;149;27319;-76
2022/03/14 03:48:17;;;;;;;9.70;8.70;;;9.80;44.80;;;;;;939079;149;27328;-75
2022/03/14 03:50:43;;;;;;;9.30;8.17;;;9.80;44.80;;;;;;938636;149;27340;-76
2022/03/14 03:53:10;;;;;;;10.03;8.63;;;9.80;44.90;;;;;;938705;149;27390;-78
2022/03/14 03:55:37;;;;;;;10.87;8.20;;;9.80;45.00;;;;;;941007;149;27357;-78
2022/03/14 03:58:03;;;;;;;9.63;7.43;;;9.90;45.20;;;;;;939591;149;27278;-78
2022/03/14 04:00:30;;;;;;;9.40;7.83;;;10.00;45.40;;;;;;939859;149;27353;-78
2022/03/14 04:02:56;;;;;;;10.70;8.10;;;10.00;45.60;;;;;;941114;149;27307;-78
2022/03/14 04:05:23;;;;;;;8.33;7.03;;;10.00;46.00;;;;;;938199;149;27269;-78
2022/03/14 04:07:50;;;;;;;7.60;6.80;;;10.00;45.90;;;;;;938611;149;27430;-78
2022/03/14 04:10:16;;;;;;;8.10;7.17;;;10.10;46.90;;;;;;938174;149;27844;-78
2022/03/14 04:12:44;;;;;;;9.07;7.00;;;10.20;47.40;;;;;;940540;149;27423;-78
2022/03/14 04:15:10;;;;;;;7.77;6.40;;;10.20;47.80;;;;;;938195;149;27325;-79
2022/03/14 04:17:36;;;;;;;7.80;7.00;;;10.20;48.20;;;;;;939751;149;27385;-78
2022/03/14 04:20:03;;;;;;;8.83;6.83;;;10.30;48.60;;;;;;937833;149;27448;-78
2022/03/14 04:22:31;;;;;;;7.73;6.93;;;10.30;48.80;;;;;;939128;149;27351;-78
2022/03/14 04:24:56;;;;;;;8.67;7.40;;;10.30;49.30;;;;;;937412;149;27249;-79
2022/03/14 04:27:22;;;;;;;8.50;7.30;;;10.30;49.60;;;;;;937977;149;27923;-78
2022/03/14 04:29:49;;;;;;;7.90;7.10;;;10.40;49.90;;;;;;938449;149;27861;-78
2022/03/14 04:32:15;;;;;;;8.23;7.43;;;10.40;50.00;;;;;;937757;149;27443;-79
2022/03/14 04:34:42;;;;;;;7.87;7.07;;;10.40;50.00;;;;;;939117;149;27833;-79
2022/03/14 04:37:09;;;;;;;9.30;7.87;;;10.30;50.20;;;;;;940201;149;27294;-78
2022/03/14 04:39:35;;;;;;;9.47;7.40;;;10.30;50.30;;;;;;937817;149;27404;-79
2022/03/14 04:42:02;;;;;;;8.37;7.47;;;10.30;50.60;;;;;;938812;149;27417;-78
2022/03/14 04:44:29;;;;;;;7.33;6.60;;;10.30;50.90;;;;;;939783;149;27386;-78
2022/03/14 04:46:55;;;;;;;7.83;7.03;;;10.30;51.30;;;;;;937597;149;27465;-79
2022/03/14 04:49:22;;;;;;;8.50;6.80;;;10.20;51.50;;;;;;939795;149;27417;-78
2022/03/14 04:51:50;;;;;;;9.47;7.40;;;10.20;51.90;;;;;;940162;149;27352;-78
2022/03/14 04:54:15;;;;;;;6.97;6.27;;;10.20;52.00;;;;;;940860;149;27347;-78
2022/03/14 04:56:41;;;;;;;8.07;7.27;;;10.10;52.30;;;;;;940667;149;27332;-78
2022/03/14 04:59:08;;;;;;;8.30;7.37;;;10.10;52.60;;;;;;938939;149;27380;-79
2022/03/14 05:01:35;;;;;;;7.27;6.57;;;10.10;52.90;;;;;;939834;149;27359;-79
2022/03/14 05:04:01;;;;;;;9.83;7.20;;;10.10;53.10;;;;;;938620;149;27351;-78
2022/03/14 05:06:28;;;;;;;7.80;6.93;;;10.10;53.30;;;;;;937519;149;27344;-79
2022/03/14 05:08:54;;;;;;;8.13;7.33;;;10.00;53.70;;;;;;937779;149;27341;-79
2022/03/14 05:11:21;;;;;;;7.23;6.53;;;10.00;54.00;;;;;;938859;149;27442;-79
2022/03/14 05:13:47;;;;;;;8.23;6.63;;;10.00;54.30;;;;;;940524;149;27365;-79
2022/03/14 05:16:14;;;;;;;8.00;6.90;;;10.00;54.40;;;;;;940640;149;27389;-78
2022/03/14 05:18:41;;;;;;;8.90;6.70;;;9.90;54.70;;;;;;939177;149;27290;-78
2022/03/14 05:21:07;;;;;;;7.80;6.17;;;9.90;54.90;;;;;;937456;149;27271;-78
2022/03/14 05:23:34;;;;;;;7.90;6.73;;;9.90;55.20;;;;;;940418;149;27461;-79
2022/03/14 05:26:00;;;;;;;7.33;6.57;;;9.90;55.40;;;;;;937524;149;27526;-79
2022/03/14 05:28:27;;;;;;;6.77;6.13;;;9.80;55.70;;;;;;938653;149;27271;-79
2022/03/14 05:30:54;;;;;;;7.23;6.07;;;9.80;56.10;;;;;;941415;149;27340;-79
2022/03/14 05:33:20;;;;;;;7.43;6.63;;;9.80;56.30;;;;;;937599;149;27706;-78
2022/03/14 05:35:47;;;;;;;7.87;6.30;;;9.80;56.60;;;;;;938844;149;27441;-78
2022/03/14 05:38:14;;;;;;;6.93;6.03;;;9.80;56.90;;;;;;937628;149;27374;-78
2022/03/14 05:40:40;;;;;;;7.73;6.40;;;9.80;57.20;;;;;;940970;149;27325;-79
2022/03/14 05:43:07;;;;;;;7.70;6.13;;;9.80;57.50;;;;;;921994;150;27369;-79
2022/03/14 05:45:33;;;;;;;6.30;5.70;;;9.80;57.60;;;;;;922105;150;27411;-78
2022/03/14 05:48:00;;;;;;;6.67;5.97;;;9.80;57.80;;;;;;923965;150;27712;-78
2022/03/14 05:50:26;;;;;;;6.97;6.10;;;9.80;58.00;;;;;;920355;150;27383;-79
2022/03/14 05:52:53;;;;;;;6.90;6.20;;;9.80;58.20;;;;;;922828;150;27303;-79
2022/03/14 05:55:19;;;;;;;6.50;5.90;;;9.90;58.50;;;;;;921275;150;27427;-79
2022/03/14 05:57:46;;;;;;;11.40;6.70;;;9.90;58.60;;;;;;920787;150;27403;-79
2022/03/14 06:00:13;;;;;;;15.80;8.40;;;9.90;58.80;;;;;;921288;150;27370;-78
2022/03/14 06:02:39;;;;;;;23.93;9.83;;;9.90;58.90;;;;;;920790;150;27357;-79
2022/03/14 06:05:06;;;;;;;15.17;7.90;;;9.90;59.00;;;;;;920433;150;27430;-80
2022/03/14 06:07:32;;;;;;;9.90;6.97;;;10.00;59.20;;;;;;920910;150;27255;-78
2022/03/14 06:09:59;;;;;;;8.87;6.70;;;10.00;59.20;;;;;;923161;150;27429;-79
2022/03/14 06:12:26;;;;;;;6.93;6.23;;;10.00;59.30;;;;;;920787;150;27327;-78
2022/03/14 06:14:52;;;;;;;8.60;6.17;;;10.10;59.50;;;;;;924009;150;27459;-79
2022/03/14 06:17:19;;;;;;;7.40;6.00;;;10.10;58.80;;;;;;919690;150;27400;-79
2022/03/14 06:19:45;;;;;;;6.60;6.00;;;10.10;59.60;;;;;;921941;150;27986;-80
2022/03/14 06:22:12;;;;;;;7.00;5.67;;;10.10;59.90;;;;;;920893;150;27437;-79
2022/03/14 06:24:39;;;;;;;7.70;5.97;;;10.20;59.90;;;;;;920704;150;27439;-79
2022/03/14 06:27:05;;;;;;;5.77;5.17;;;10.20;60.10;;;;;;921497;150;27473;-79
2022/03/14 06:29:32;;;;;;;4.43;4.00;;;10.20;60.20;;;;;;922356;150;27401;-79
2022/03/14 06:31:59;;;;;;;5.10;4.60;;;10.20;60.20;;;;;;923469;150;27402;-78
2022/03/14 06:34:26;;;;;;;3.70;3.33;;;10.30;60.40;;;;;;923709;150;27354;-78
2022/03/14 06:36:52;;;;;;;2.97;2.77;;;10.30;60.90;;;;;;921840;150;27380;-79
2022/03/14 06:39:18;;;;;;;2.70;2.50;;;10.30;61.30;;;;;;922874;150;27472;-80
2022/03/14 06:41:45;;;;;;;2.43;2.27;;;10.40;61.40;;;;;;921433;150;27288;-78
2022/03/14 06:44:13;;;;;;;3.27;2.40;;;10.40;61.70;;;;;;927266;149;27296;-79
2022/03/14 06:46:38;;;;;;;3.00;2.70;;;10.50;61.70;;;;;;924437;149;27334;-78
2022/03/14 06:49:04;;;;;;;2.30;2.20;;;10.50;62.10;;;;;;926751;149;27411;-78
2022/03/14 06:51:31;;;;;;;2.60;2.40;;;10.60;62.20;;;;;;933522;149;27388;-78
2022/03/14 06:53:58;;;;;;;2.47;2.27;;;10.70;62.10;;;;;;934891;150;28491;-78
2022/03/14 06:56:24;;;;;;;2.47;2.27;;;10.70;62.10;;;;;;932755;150;27334;-79
2022/03/14 06:58:51;;;;;;;2.50;2.30;;;10.80;62.40;;;;;;934549;150;27389;-79
2022/03/14 07:01:18;;;;;;;2.80;2.50;;;10.90;62.80;;;;;;932787;150;27483;-78
2022/03/14 07:03:44;;;;;;;2.77;2.57;;;10.90;62.40;;;;;;933957;150;27353;-79
2022/03/14 07:06:11;;;;;;;2.50;2.30;;;11.00;62.70;;;;;;925229;149;27422;-78
2022/03/14 07:08:37;;;;;;;2.57;2.37;;;11.10;62.40;;;;;;930031;149;27440;-78
2022/03/14 07:11:04;;;;;;;2.87;2.67;;;11.10;62.80;;;;;;932751;150;27439;-78
2022/03/14 07:13:30;;;;;;;3.20;2.90;;;11.10;62.70;;;;;;933628;150;27390;-78
2022/03/14 07:15:57;;;;;;;5.00;3.93;;;11.20;62.80;;;;;;919513;150;27397;-79
2022/03/14 07:18:23;;;;;;;3.10;2.80;;;11.20;62.70;;;;;;930238;148;27328;-80
2022/03/14 07:20:50;;;;;;;3.17;2.87;;;11.20;62.50;;;;;;931315;148;27397;-78
2022/03/14 07:23:17;;;;;;;3.83;3.47;;;11.20;63.00;;;;;;924919;150;27298;-78
2022/03/14 07:25:43;;;;;;;3.30;3.00;;;11.30;62.70;;;;;;926261;149;27318;-78
2022/03/14 07:28:10;;;;;;;4.00;3.00;;;11.20;63.00;;;;;;921076;150;27388;-78
2022/03/14 07:30:37;;;;;;;2.70;2.50;;;11.30;63.00;;;;;;925868;150;27356;-78
2022/03/14 07:33:03;;;;;;;2.93;2.63;;;11.30;63.20;;;;;;915927;150;27369;-78
2022/03/14 07:35:30;;;;;;;2.60;2.40;;;11.30;63.30;;;;;;931799;148;27470;-78
2022/03/14 07:37:56;;;;;;;2.57;2.37;;;11.40;63.20;;;;;;931403;148;27370;-78
2022/03/14 07:40:23;;;;;;;2.90;2.60;;;11.40;62.80;;;;;;929534;148;27384;-78
2022/03/14 07:42:49;;;;;;;3.70;3.10;;;11.40;62.50;;;;;;933532;146;27506;-78
2022/03/14 07:45:16;;;;;;;2.60;2.23;;;11.50;62.70;;;;;;945159;146;27406;-78
2022/03/14 07:47:42;;;;;;;3.17;2.80;;;11.50;62.80;;;;;;939409;146;27373;-78
2022/03/14 07:50:09;;;;;;;2.73;2.50;;;11.50;62.80;;;;;;937093;148;27307;-78
2022/03/14 07:52:36;;;;;;;2.80;2.60;;;11.60;62.90;;;;;;935757;149;27357;-78
2022/03/14 07:55:02;;;;;;;3.10;2.37;;;11.60;62.80;;;;;;935561;149;27408;-78
2022/03/14 07:57:31;;;;;;;3.13;2.83;;;11.60;62.50;;;;;;935727;149;27413;-79
2022/03/14 07:59:55;;;;;;;2.93;2.70;;;11.70;62.70;;;;;;935424;149;27318;-78
2022/03/14 08:02:23;;;;;;;2.60;2.40;;;11.70;63.20;;;;;;935863;149;27478;-78
2022/03/14 08:04:49;;;;;;;2.90;2.23;;;11.80;63.00;;;;;;934872;149;27382;-78
2022/03/14 08:07:16;;;;;;;6.50;2.93;;;11.80;62.70;;;;;;935379;149;27387;-78
2022/03/14 08:09:42;;;;;;;3.53;2.70;;;11.80;62.40;;;;;;935930;149;27413;-79
2022/03/14 08:12:11;;;;;;;3.90;2.77;;;11.90;62.60;;;;;;934392;149;27398;-78
2022/03/14 08:14:35;;;;;;;4.97;2.70;;;11.90;62.80;;;;;;935796;149;27314;-78
2022/03/14 08:17:02;;;;;;;3.90;2.67;;;11.90;62.60;;;;;;933580;149;27430;-78
2022/03/14 08:19:28;;;;;;;4.53;2.53;;;11.90;62.20;;;;;;935963;149;27379;-78
2022/03/14 08:21:56;;;;;;;2.57;2.37;;;12.00;62.80;;;;;;935857;149;27403;-78
2022/03/14 08:24:21;;;;;;;3.20;2.63;;;12.00;62.30;;;;;;936065;149;27343;-78
2022/03/14 08:26:48;;;;;;;3.53;2.97;;;12.00;62.50;;;;;;934462;149;27467;-78
2022/03/14 08:29:15;;;;;;;5.43;3.20;;;12.00;63.10;;;;;;937104;149;27629;-78
2022/03/14 08:31:41;;;;;;;4.10;2.80;;;12.00;62.70;;;;;;936979;149;27479;-78
2022/03/14 08:34:08;;;;;;;6.53;2.83;;;12.00;63.10;;;;;;936633;149;27419;-78
2022/03/14 08:36:36;;;;;;;4.63;3.10;;;12.00;63.40;;;;;;935601;149;27306;-78
2022/03/14 08:39:01;;;;;;;3.77;2.80;;;12.10;63.10;;;;;;933639;149;27403;-78
2022/03/14 08:41:27;;;;;;;4.70;3.10;;;12.10;63.20;;;;;;937162;149;27550;-78
2022/03/14 08:43:54;;;;;;;5.00;2.90;;;12.20;63.40;;;;;;935051;149;27430;-78
2022/03/14 08:46:21;;;;;;;4.50;3.17;;;12.20;63.20;;;;;;935416;149;28540;-78
2022/03/14 08:48:47;;;;;;;5.40;3.00;;;12.30;63.90;;;;;;926661;149;27308;-78
2022/03/14 08:51:14;;;;;;;4.33;3.03;;;12.30;63.20;;;;;;928679;149;27555;-78
2022/03/14 08:53:41;;;;;;;3.20;2.90;;;12.40;63.20;;;;;;925838;149;27298;-78
2022/03/14 08:56:07;;;;;;;4.50;3.00;;;12.40;62.90;;;;;;894187;157;27435;-78
2022/03/14 08:58:34;;;;;;;4.87;3.50;;;12.50;62.90;;;;;;895820;157;27450;-78
2022/03/14 09:01:00;;;;;;;3.47;3.13;;;12.50;62.80;;;;;;906368;153;27434;-78
2022/03/14 09:03:27;;;;;;;4.37;3.33;;;12.50;62.50;;;;;;906409;154;27450;-78
2022/03/14 09:05:56;;;;;;;3.60;3.30;;;12.60;62.60;;;;;;906624;154;27317;-78
2022/03/14 09:08:29;;;;;;;4.40;3.13;;;12.70;62.60;;;;;;908113;154;27554;-78
2022/03/14 09:10:55;;;;;;;5.10;3.90;;;12.80;62.70;;;;;;905902;154;27413;-79
2022/03/14 09:13:23;;;;;;;5.13;3.57;;;12.90;62.60;;;;;;905008;154;27377;-78
2022/03/14 09:15:49;;;;;;;3.73;3.30;;;13.00;62.80;;;;;;904876;154;27825;-78
2022/03/14 09:18:15;;;;;;;4.80;3.47;;;13.10;62.50;;;;;;906004;154;27366;-78
2022/03/14 09:20:42;;;;;;;4.17;3.57;;;13.40;62.90;;;;;;906777;154;27405;-78
2022/03/14 09:23:08;;;;;;;4.90;3.17;;;13.50;62.50;;;;;;906793;154;27482;-78
2022/03/14 09:25:35;;;;;;;6.00;3.83;;;13.70;62.80;;;;;;905434;154;27366;-78
2022/03/14 09:28:02;;;;;;;5.47;3.40;;;13.80;61.60;;;;;;904638;154;27307;-78
2022/03/14 09:30:28;;;;;;;4.47;3.53;;;14.00;62.20;;;;;;904678;154;27422;-78
2022/03/14 09:32:55;;;;;;;6.80;3.60;;;14.10;61.20;;;;;;908700;154;27500;-78
2022/03/14 09:35:21;;;;;;;5.87;3.08;;;14.20;60.80;;;;;;903111;153;27945;-78
2022/03/14 09:37:49;;;;;;;3.80;3.12;;;14.40;61.10;;;;;;922338;149;27516;-78
2022/03/14 09:40:17;;;;;;;5.47;2.90;;;14.60;60.70;;;;;;926238;149;27839;-78
2022/03/14 09:42:41;;;;;;;3.20;2.70;;;14.80;60.90;;;;;;924089;149;27305;-78
2022/03/14 09:45:08;;;;;;;3.70;2.90;;;15.20;61.10;;;;;;937811;148;27378;-78
2022/03/14 09:47:34;;;;;;;4.62;2.72;;;15.60;60.90;;;;;;938749;148;27516;-78
2022/03/14 09:50:01;;;;;;;4.53;2.50;;;15.90;60.40;;;;;;932115;149;27381;-78
2022/03/14 09:52:27;;;;;;;3.77;2.92;;;16.30;59.40;;;;;;936115;149;27452;-78
2022/03/14 09:54:54;;;;;;;3.70;2.77;;;16.70;59.00;;;;;;936428;149;27414;-78
2022/03/14 09:57:21;;;;;;;4.12;2.77;;;17.00;58.30;;;;;;936062;149;27419;-78
2022/03/14 09:59:48;;;;;;;3.75;2.80;;;17.20;57.80;;;;;;935803;149;27855;-79
2022/03/14 10:02:14;;;;;;;3.47;2.80;;;17.40;57.30;;;;;;936337;149;28132;-78
2022/03/14 10:04:40;;;;;;;2.95;2.65;;;17.60;57.00;;;;;;935643;149;27322;-78
2022/03/14 10:07:07;;;;;;;4.22;2.35;;;17.80;56.60;;;;;;936376;149;28049;-79
2022/03/14 10:09:37;;;;;;;3.27;2.27;;;17.90;56.50;;;;;;935616;149;27373;-79
2022/03/14 10:12:04;;;;;;;3.90;2.30;;;18.10;56.10;;;;;;935632;149;27366;-78
2022/03/14 10:14:30;;;;;;;2.20;1.90;;;18.30;55.90;;;;;;934032;149;27646;-79
2022/03/14 10:16:56;;;;;;;3.40;2.12;;;18.50;55.30;;;;;;936719;149;27309;-79
2022/03/14 10:19:29;;;;;;;4.33;2.02;;;18.70;54.70;;;;;;935515;149;27272;-79
2022/03/14 10:21:56;;;;;;;3.15;2.45;;;18.80;54.10;;;;;;937259;149;27387;-79
2022/03/14 10:24:22;;;;;;;2.90;2.20;;;18.80;53.60;;;;;;936081;149;27377;-79
2022/03/14 10:26:49;;;;;;;3.77;2.08;;;18.90;53.10;;;;;;936674;149;27438;-79
2022/03/14 10:29:16;;;;;;;3.02;2.12;;;18.80;53.10;;;;;;936750;149;27342;-79
2022/03/14 10:31:47;;;;;;;2.00;1.80;;;18.80;52.70;;;;;;936913;149;27326;-79
2022/03/14 10:34:18;;;;;;;3.02;2.08;;;18.70;52.60;;;;;;936713;149;27496;-79
2022/03/14 10:36:55;;;;;;;3.33;2.10;;;18.60;52.40;;;;;;935959;149;28374;-79
2022/03/14 10:39:27;;;;;;;3.55;2.10;;;18.50;52.40;;;;;;936443;149;27307;-79
2022/03/14 10:42:07;;;;;;;3.50;2.08;;;18.40;52.50;;;;;;935936;149;27519;-79
2022/03/14 10:44:32;;;;;;;2.35;2.12;;;18.40;52.50;;;;;;935504;149;28425;-79
2022/03/14 10:46:59;;;;;;;4.70;2.10;;;18.30;52.60;;;;;;937835;149;27320;-79
2022/03/14 10:49:31;;;;;;;2.90;2.10;;;18.20;52.60;;;;;;936802;149;27824;-79
2022/03/14 10:52:05;;;;;;;2.02;1.82;;;18.20;52.50;;;;;;940467;151;27306;-79
2022/03/14 10:54:30;;;;;;;3.33;1.70;;;18.20;52.50;;;;;;930013;152;27334;-79
2022/03/14 10:57:06;;;;;;;1.98;1.77;;;18.20;52.60;;;;;;929454;150;27365;-79
2022/03/14 10:59:33;;;;;;;2.60;1.75;;;18.20;52.60;;;;;;930536;151;27906;-79
2022/03/14 11:01:59;;;;;;;2.40;1.62;;;18.20;52.30;;;;;;929664;150;27392;-79
2022/03/14 11:04:29;;;;;;;1.98;1.70;;;18.20;52.40;;;;;;929817;149;27316;-79
2022/03/14 11:06:58;;;;;;;1.67;1.57;;;18.20;52.40;;;;;;929697;149;27450;-78
2022/03/14 11:09:25;;;;;;;2.05;1.52;;;18.20;52.40;;;;;;932105;149;27460;-79
2022/03/14 11:11:51;;;;;;;1.80;1.70;;;18.30;52.50;;;;;;928190;152;27465;-79
2022/03/14 11:14:19;;;;;;;1.85;1.75;;;18.40;52.30;;;;;;928673;149;27270;-78
2022/03/14 11:16:45;;;;;;;1.92;1.70;;;18.40;52.20;;;;;;929270;149;27780;-79
2022/03/14 11:19:11;;;;;;;1.82;1.62;;;18.50;51.90;;;;;;929434;149;27711;-79
2022/03/14 11:21:38;;;;;;;1.82;1.72;;;18.50;51.40;;;;;;917339;152;27422;-78
2022/03/14 11:24:04;;;;;;;2.17;1.67;;;18.40;51.10;;;;;;916273;152;27450;-79
2022/03/14 11:26:31;;;;;;;2.05;1.90;;;18.30;51.10;;;;;;917760;152;27348;-78
2022/03/14 11:28:58;;;;;;;3.35;1.77;;;18.20;51.30;;;;;;918330;155;28025;-78
2022/03/14 11:31:24;;;;;;;2.83;1.92;;;18.10;51.30;;;;;;917317;152;27450;-79
2022/03/14 11:33:51;;;;;;;4.83;2.25;;;17.90;51.40;;;;;;918121;152;27319;-78
2022/03/14 11:36:21;;;;;;;2.45;2.10;;;17.90;51.70;;;;;;917422;155;27414;-78
2022/03/14 11:38:47;;;;;;;4.42;2.17;;;17.80;51.90;;;;;;919003;152;27306;-78
2022/03/14 11:41:14;;;;;;;2.52;2.17;;;17.80;52.10;;;;;;919085;155;27465;-79
2022/03/14 11:43:40;;;;;;;4.58;2.27;;;17.80;52.00;;;;;;917599;155;27386;-78
2022/03/14 11:46:07;;;;;;;4.30;2.52;;;17.80;51.90;;;;;;927052;149;27522;-78
2022/03/14 11:48:34;;;;;;;2.45;2.25;;;17.70;51.20;;;;;;933364;149;27417;-78
2022/03/14 11:51:00;;;;;;;3.25;2.67;;;17.70;51.80;;;;;;931840;150;28734;-78
2022/03/14 11:53:27;;;;;;;3.70;2.75;;;17.60;51.20;;;;;;922102;150;27428;-78
2022/03/14 11:55:54;;;;;;;3.67;2.80;;;17.50;51.80;;;;;;940386;148;27416;-78
2022/03/14 11:58:35;;;;;;;3.58;2.80;;;17.50;51.70;;;;;;939239;148;27435;-78
2022/03/14 12:01:22;;;;;;;4.67;2.75;;;17.40;51.80;;;;;;937799;148;27436;-78
2022/03/14 12:03:52;;;;;;;2.65;2.45;;;17.20;51.80;;;;;;938108;148;27438;-78
2022/03/14 12:06:24;;;;;;;3.05;2.25;;;17.10;52.10;;;;;;935460;148;27470;-78
2022/03/14 12:08:50;;;;;;;3.20;2.67;;;17.00;52.30;;;;;;934952;151;28921;-78
2022/03/14 12:11:31;;;;;;;3.20;2.77;;;17.00;52.60;;;;;;939540;148;27397;-78
2022/03/14 12:13:56;;;;;;;3.40;2.60;;;16.90;52.90;;;;;;939485;148;27298;-78
2022/03/14 12:16:34;;;;;;;4.15;2.77;;;17.00;53.10;;;;;;938079;148;27289;-78
2022/03/14 12:19:01;;;;;;;2.67;2.42;;;17.10;53.20;;;;;;939089;148;27701;-78
2022/03/14 12:21:46;;;;;;;2.52;2.33;;;17.20;53.20;;;;;;935708;148;27434;-78
2022/03/14 12:24:34;;;;;;;3.90;2.87;;;17.20;53.20;;;;;;939468;148;27472;-78
2022/03/14 12:27:00;;;;;;;2.20;2.00;;;17.40;53.10;;;;;;939016;148;27269;-78
2022/03/14 12:29:34;;;;;;;2.22;2.02;;;17.50;52.90;;;;;;936876;148;27786;-78
2022/03/14 12:32:24;;;;;;;2.45;1.95;;;17.60;52.60;;;;;;937837;148;27425;-78
2022/03/14 12:34:57;;;;;;;1.90;1.80;;;17.70;52.30;;;;;;939455;148;27394;-78
2022/03/14 12:37:24;;;;;;;2.02;1.92;;;17.70;52.10;;;;;;937331;148;27347;-78
2022/03/14 12:39:50;;;;;;;2.50;2.10;;;17.80;52.00;;;;;;936336;148;27393;-78
2022/03/14 12:42:20;;;;;;;4.00;1.85;;;17.70;51.50;;;;;;936135;148;27273;-78
2022/03/14 12:44:46;;;;;;;2.58;2.02;;;17.80;51.80;;;;;;937165;148;27293;-78
2022/03/14 12:47:13;;;;;;;3.20;2.00;;;17.70;51.70;;;;;;934633;148;27281;-78
2022/03/14 12:49:39;;;;;;;2.30;2.10;;;17.80;51.70;;;;;;932055;148;27363;-78